Time,TemperatureF,DewpointF,PressureIn,WindDirection,WindDirectionDegrees,WindSpeedMPH,WindSpeedGustMPH,Humidity,HourlyPrecipIn,Conditions,Clouds,dailyrainin,SoftwareType,DateUTC
2013-01-12 00:00:00,17.6,13.5,23.98,North,0,0.0,-999.0,84,0.00,,,0.02,,2013-01-12 08:00:00,
2013-01-12 01:00:00,16.4,12.1,23.99,North,0,0.0,-999.0,83,0.00,,,0.02,,2013-01-12 09:00:00,
2013-01-12 02:00:00,14.8,11.1,23.99,North,0,0.0,-999.0,85,0.00,,,0.02,,2013-01-12 10:00:00,
2013-01-12 03:00:00,14.2,10.5,23.99,North,0,0.0,-999.0,85,0.00,,,0.02,,2013-01-12 11:00:00,
2013-01-12 04:00:00,13.9,10.4,23.99,North,0,0.0,-999.0,86,0.00,,,0.02,,2013-01-12 12:00:00,
2013-01-12 05:00:00,13.5,10.1,23.98,North,0,0.0,-999.0,86,0.00,,,0.02,,2013-01-12 13:00:00,
2013-01-12 06:00:00,13.5,10.4,24.01,North,0,0.0,-999.0,87,0.00,,,0.02,,2013-01-12 14:00:00,
2013-01-12 07:07:00,13.9,10.7,24.01,North,0,0.0,-999.0,87,0.00,,,0.02,,2013-01-12 15:07:00,
2013-01-12 08:00:00,14.6,11.4,24.04,North,0,0.0,-999.0,87,0.00,,,0.02,,2013-01-12 16:00:00,
2013-01-12 09:07:00,17.8,14.5,24.04,North,0,0.0,-999.0,87,0.00,,,0.02,,2013-01-12 17:07:00,
2013-01-12 10:00:00,21.8,17.1,24.05,North,0,0.0,-999.0,82,0.00,,,0.00,,2013-01-12 18:00:00,
2013-01-12 11:07:00,23.9,15.2,24.05,North,0,0.0,-999.0,69,0.00,,,0.00,,2013-01-12 19:07:00,
2013-01-12 12:00:00,25.2,16.7,24.02,North,0,0.0,-999.0,70,0.00,,,0.00,,2013-01-12 20:00:00,
2013-01-12 13:06:00,26.3,17.8,24.02,North,0,0.0,-999.0,70,0.00,,,0.00,,2013-01-12 21:06:00,
2013-01-12 14:00:00,25.6,17.7,24.00,North,0,0.0,-999.0,72,0.00,,,0.00,,2013-01-12 22:00:00,
2013-01-12 15:06:00,22.9,17.0,24.01,North,0,0.0,-999.0,78,0.00,,,0.00,,2013-01-12 23:06:00,
2013-01-12 16:00:00,22.3,17.9,24.01,North,0,0.0,-999.0,83,0.00,,,0.00,,2013-01-13 00:00:00,
2013-01-12 17:06:00,21.2,17.4,24.01,North,0,0.0,-999.0,85,0.00,,,0.00,,2013-01-13 01:06:00,
2013-01-12 18:00:00,20.0,16.7,24.00,North,0,0.0,-999.0,87,0.00,,,0.00,,2013-01-13 02:00:00,
2013-01-12 19:00:00,18.2,14.9,24.00,North,0,0.0,-999.0,87,0.00,,,0.00,,2013-01-13 03:00:00,
2013-01-12 20:00:00,16.6,13.0,24.00,North,0,0.0,-999.0,86,0.00,,,0.00,,2013-01-13 04:00:00,
2013-01-12 21:00:00,15.8,12.3,24.00,North,0,0.0,-999.0,86,0.00,,,0.00,,2013-01-13 05:00:00,
2013-01-12 22:00:00,17.3,14.0,24.01,North,0,0.0,-999.0,87,0.00,,,0.00,,2013-01-13 06:00:00,
2013-01-12 23:00:00,17.5,14.1,24.01,North,0,0.0,-999.0,87,0.00,,,0.00,,2013-01-13 07:00:00,